sensor_id;sensor_type;location;lat;lon;timestamp;P1;durP1;ratioP1;P2;durP2;ratioP2
41837;SDS011;27511;52.042;5.178;2022-10-23T00:00:33;14.18;;;8.77;;
41837;SDS011;27511;52.042;5.178;2022-10-23T00:02:59;14.88;;;8.88;;
41837;SDS011;27511;52.042;5.178;2022-10-23T00:05:25;10.65;;;8.70;;
41837;SDS011;27511;52.042;5.178;2022-10-23T00:07:52;13.90;;;9.35;;
41837;SDS011;27511;52.042;5.178;2022-10-23T00:10:19;16.90;;;9.30;;
41837;SDS011;27511;52.042;5.178;2022-10-23T00:12:46;14.40;;;8.68;;
41837;SDS011;27511;52.042;5.178;2022-10-23T00:15:13;15.20;;;9.05;;
41837;SDS011;27511;52.042;5.178;2022-10-23T00:17:40;11.45;;;8.82;;
41837;SDS011;27511;52.042;5.178;2022-10-23T00:20:06;11.93;;;9.20;;
41837;SDS011;27511;52.042;5.178;2022-10-23T00:22:32;11.95;;;8.43;;
41837;SDS011;27511;52.042;5.178;2022-10-23T00:24:58;11.43;;;8.18;;
41837;SDS011;27511;52.042;5.178;2022-10-23T00:27:24;14.45;;;9.13;;
41837;SDS011;27511;52.042;5.178;2022-10-23T00:29:49;11.02;;;8.40;;
41837;SDS011;27511;52.042;5.178;2022-10-23T00:32:15;12.30;;;7.90;;
41837;SDS011;27511;52.042;5.178;2022-10-23T00:34:41;12.07;;;8.88;;
41837;SDS011;27511;52.042;5.178;2022-10-23T00:37:06;10.77;;;8.13;;
41837;SDS011;27511;52.042;5.178;2022-10-23T00:39:32;10.57;;;8.45;;
41837;SDS011;27511;52.042;5.178;2022-10-23T00:41:57;13.18;;;8.20;;
41837;SDS011;27511;52.042;5.178;2022-10-23T00:46:48;12.93;;;8.88;;
41837;SDS011;27511;52.042;5.178;2022-10-23T00:49:14;14.65;;;8.65;;
41837;SDS011;27511;52.042;5.178;2022-10-23T00:51:44;17.27;;;9.77;;
41837;SDS011;27511;52.042;5.178;2022-10-23T00:54:12;11.50;;;8.43;;
41837;SDS011;27511;52.042;5.178;2022-10-23T00:56:41;12.25;;;8.80;;
41837;SDS011;27511;52.042;5.178;2022-10-23T00:59:08;12.18;;;8.25;;
41837;SDS011;27511;52.042;5.178;2022-10-23T01:01:34;13.60;;;9.20;;
41837;SDS011;27511;52.042;5.178;2022-10-23T01:04:01;12.60;;;8.48;;
41837;SDS011;27511;52.042;5.178;2022-10-23T01:06:30;12.35;;;8.13;;
41837;SDS011;27511;52.042;5.178;2022-10-23T01:09:17;11.95;;;8.40;;
41837;SDS011;27511;52.042;5.178;2022-10-23T01:20:06;13.60;;;8.38;;
41837;SDS011;27511;52.042;5.178;2022-10-23T01:23:04;16.23;;;8.65;;
41837;SDS011;27511;52.042;5.178;2022-10-23T01:28:43;13.70;;;8.38;;
41837;SDS011;27511;52.042;5.178;2022-10-23T01:31:15;12.82;;;8.68;;
41837;SDS011;27511;52.042;5.178;2022-10-23T01:33:47;14.05;;;8.80;;
41837;SDS011;27511;52.042;5.178;2022-10-23T01:36:19;13.07;;;8.77;;
41837;SDS011;27511;52.042;5.178;2022-10-23T01:39:08;13.25;;;9.35;;
41837;SDS011;27511;52.042;5.178;2022-10-23T01:41:43;12.75;;;8.55;;
41837;SDS011;27511;52.042;5.178;2022-10-23T01:46:40;12.98;;;8.55;;
41837;SDS011;27511;52.042;5.178;2022-10-23T01:49:08;13.52;;;9.60;;
41837;SDS011;27511;52.042;5.178;2022-10-23T01:51:36;16.15;;;8.80;;
41837;SDS011;27511;52.042;5.178;2022-10-23T01:54:05;12.38;;;8.27;;
41837;SDS011;27511;52.042;5.178;2022-10-23T01:56:34;13.77;;;9.10;;
41837;SDS011;27511;52.042;5.178;2022-10-23T01:59:04;13.07;;;8.75;;
41837;SDS011;27511;52.042;5.178;2022-10-23T02:01:34;15.88;;;8.88;;
41837;SDS011;27511;52.042;5.178;2022-10-23T02:04:04;12.32;;;8.38;;
41837;SDS011;27511;52.042;5.178;2022-10-23T02:06:34;12.52;;;9.13;;
41837;SDS011;27511;52.042;5.178;2022-10-23T02:09:00;11.13;;;8.40;;
41837;SDS011;27511;52.042;5.178;2022-10-23T02:11:25;13.45;;;8.88;;
41837;SDS011;27511;52.042;5.178;2022-10-23T02:16:36;12.88;;;8.90;;
41837;SDS011;27511;52.042;5.178;2022-10-23T02:19:16;12.20;;;8.32;;
41837;SDS011;27511;52.042;5.178;2022-10-23T02:21:50;12.82;;;8.30;;
41837;SDS011;27511;52.042;5.178;2022-10-23T02:24:24;16.05;;;8.50;;
41837;SDS011;27511;52.042;5.178;2022-10-23T02:26:55;14.10;;;8.30;;
41837;SDS011;27511;52.042;5.178;2022-10-23T02:29:26;13.30;;;8.00;;
41837;SDS011;27511;52.042;5.178;2022-10-23T02:32:05;12.70;;;8.20;;
41837;SDS011;27511;52.042;5.178;2022-10-23T02:34:33;11.52;;;8.75;;
41837;SDS011;27511;52.042;5.178;2022-10-23T02:36:58;12.13;;;8.18;;
41837;SDS011;27511;52.042;5.178;2022-10-23T02:39:25;12.68;;;8.50;;
41837;SDS011;27511;52.042;5.178;2022-10-23T02:41:58;9.68;;;7.95;;
41837;SDS011;27511;52.042;5.178;2022-10-23T02:44:54;11.95;;;7.97;;
41837;SDS011;27511;52.042;5.178;2022-10-23T02:47:52;14.95;;;8.52;;
41837;SDS011;27511;52.042;5.178;2022-10-23T02:52:57;13.50;;;8.20;;
41837;SDS011;27511;52.042;5.178;2022-10-23T03:01:10;14.75;;;8.40;;
41837;SDS011;27511;52.042;5.178;2022-10-23T03:04:01;16.58;;;9.27;;
41837;SDS011;27511;52.042;5.178;2022-10-23T03:06:27;11.18;;;8.02;;
41837;SDS011;27511;52.042;5.178;2022-10-23T03:08:56;13.40;;;8.18;;
41837;SDS011;27511;52.042;5.178;2022-10-23T03:11:24;16.35;;;9.43;;
41837;SDS011;27511;52.042;5.178;2022-10-23T03:13:50;10.77;;;9.13;;
41837;SDS011;27511;52.042;5.178;2022-10-23T03:16:16;16.77;;;8.82;;
41837;SDS011;27511;52.042;5.178;2022-10-23T03:18:41;12.77;;;8.02;;
41837;SDS011;27511;52.042;5.178;2022-10-23T03:21:07;11.82;;;8.93;;
41837;SDS011;27511;52.042;5.178;2022-10-23T03:23:32;15.60;;;8.50;;
41837;SDS011;27511;52.042;5.178;2022-10-23T03:25:58;12.35;;;8.18;;
41837;SDS011;27511;52.042;5.178;2022-10-23T03:28:23;13.52;;;8.38;;
41837;SDS011;27511;52.042;5.178;2022-10-23T03:30:49;12.60;;;8.38;;
41837;SDS011;27511;52.042;5.178;2022-10-23T03:33:14;12.25;;;8.27;;
41837;SDS011;27511;52.042;5.178;2022-10-23T03:35:40;9.35;;;7.63;;
41837;SDS011;27511;52.042;5.178;2022-10-23T03:38:06;13.57;;;8.35;;
41837;SDS011;27511;52.042;5.178;2022-10-23T03:40:31;13.45;;;7.78;;
41837;SDS011;27511;52.042;5.178;2022-10-23T03:42:57;13.10;;;8.00;;
41837;SDS011;27511;52.042;5.178;2022-10-23T03:45:22;9.57;;;7.95;;
41837;SDS011;27511;52.042;5.178;2022-10-23T03:47:48;12.70;;;7.45;;
41837;SDS011;27511;52.042;5.178;2022-10-23T03:50:15;11.75;;;8.30;;
41837;SDS011;27511;52.042;5.178;2022-10-23T03:52:41;13.00;;;7.70;;
41837;SDS011;27511;52.042;5.178;2022-10-23T03:55:07;10.75;;;7.63;;
41837;SDS011;27511;52.042;5.178;2022-10-23T03:57:33;13.25;;;7.45;;
41837;SDS011;27511;52.042;5.178;2022-10-23T03:59:58;12.40;;;7.38;;
41837;SDS011;27511;52.042;5.178;2022-10-23T04:02:24;14.00;;;7.38;;
41837;SDS011;27511;52.042;5.178;2022-10-23T04:04:49;12.07;;;7.20;;
41837;SDS011;27511;52.042;5.178;2022-10-23T04:07:15;12.32;;;8.10;;
41837;SDS011;27511;52.042;5.178;2022-10-23T04:09:40;10.43;;;7.15;;
41837;SDS011;27511;52.042;5.178;2022-10-23T04:12:06;11.20;;;7.13;;
41837;SDS011;27511;52.042;5.178;2022-10-23T04:14:32;11.55;;;7.95;;
41837;SDS011;27511;52.042;5.178;2022-10-23T04:16:57;12.75;;;7.97;;
41837;SDS011;27511;52.042;5.178;2022-10-23T04:19:23;10.35;;;6.35;;
41837;SDS011;27511;52.042;5.178;2022-10-23T04:21:48;10.00;;;7.68;;
41837;SDS011;27511;52.042;5.178;2022-10-23T04:24:14;11.88;;;8.30;;
41837;SDS011;27511;52.042;5.178;2022-10-23T04:26:39;13.32;;;8.18;;
41837;SDS011;27511;52.042;5.178;2022-10-23T04:29:05;11.25;;;7.40;;
41837;SDS011;27511;52.042;5.178;2022-10-23T04:31:30;10.73;;;7.50;;
41837;SDS011;27511;52.042;5.178;2022-10-23T04:33:56;9.93;;;7.25;;
41837;SDS011;27511;52.042;5.178;2022-10-23T04:36:21;12.40;;;7.10;;
41837;SDS011;27511;52.042;5.178;2022-10-23T04:38:47;12.30;;;7.32;;
41837;SDS011;27511;52.042;5.178;2022-10-23T04:41:13;12.38;;;7.40;;
41837;SDS011;27511;52.042;5.178;2022-10-23T04:43:38;12.95;;;7.72;;
41837;SDS011;27511;52.042;5.178;2022-10-23T04:46:04;14.90;;;7.05;;
41837;SDS011;27511;52.042;5.178;2022-10-23T04:48:30;14.32;;;7.90;;
41837;SDS011;27511;52.042;5.178;2022-10-23T04:51:02;12.70;;;8.27;;
41837;SDS011;27511;52.042;5.178;2022-10-23T04:53:29;10.25;;;7.43;;
41837;SDS011;27511;52.042;5.178;2022-10-23T04:55:56;9.73;;;6.47;;
41837;SDS011;27511;52.042;5.178;2022-10-23T04:58:23;13.13;;;6.82;;
41837;SDS011;27511;52.042;5.178;2022-10-23T05:00:50;11.15;;;6.80;;
41837;SDS011;27511;52.042;5.178;2022-10-23T05:03:16;11.38;;;6.72;;
41837;SDS011;27511;52.042;5.178;2022-10-23T05:05:42;12.20;;;6.85;;
41837;SDS011;27511;52.042;5.178;2022-10-23T05:08:09;9.68;;;6.88;;
41837;SDS011;27511;52.042;5.178;2022-10-23T05:10:36;12.55;;;6.35;;
41837;SDS011;27511;52.042;5.178;2022-10-23T05:13:02;8.93;;;6.47;;
41837;SDS011;27511;52.042;5.178;2022-10-23T05:15:28;9.45;;;6.43;;
41837;SDS011;27511;52.042;5.178;2022-10-23T05:17:54;9.75;;;6.60;;
41837;SDS011;27511;52.042;5.178;2022-10-23T05:20:24;11.65;;;6.57;;
41837;SDS011;27511;52.042;5.178;2022-10-23T05:22:54;12.35;;;6.35;;
41837;SDS011;27511;52.042;5.178;2022-10-23T05:25:21;9.82;;;5.90;;
41837;SDS011;27511;52.042;5.178;2022-10-23T05:27:46;12.63;;;6.90;;
41837;SDS011;27511;52.042;5.178;2022-10-23T05:30:12;14.27;;;6.35;;
41837;SDS011;27511;52.042;5.178;2022-10-23T05:32:38;7.20;;;5.68;;
41837;SDS011;27511;52.042;5.178;2022-10-23T05:35:08;14.43;;;7.18;;
41837;SDS011;27511;52.042;5.178;2022-10-23T05:37:39;12.93;;;6.47;;
41837;SDS011;27511;52.042;5.178;2022-10-23T05:40:07;10.48;;;6.65;;
41837;SDS011;27511;52.042;5.178;2022-10-23T05:42:34;9.68;;;6.05;;
41837;SDS011;27511;52.042;5.178;2022-10-23T05:44:59;10.25;;;6.78;;
41837;SDS011;27511;52.042;5.178;2022-10-23T05:47:25;10.10;;;6.13;;
41837;SDS011;27511;52.042;5.178;2022-10-23T05:49:50;10.50;;;6.25;;
41837;SDS011;27511;52.042;5.178;2022-10-23T05:52:16;9.35;;;5.95;;
41837;SDS011;27511;52.042;5.178;2022-10-23T05:54:44;10.13;;;6.55;;
41837;SDS011;27511;52.042;5.178;2022-10-23T05:57:09;10.90;;;6.65;;
41837;SDS011;27511;52.042;5.178;2022-10-23T05:59:35;8.68;;;5.93;;
41837;SDS011;27511;52.042;5.178;2022-10-23T06:02:00;15.60;;;6.22;;
41837;SDS011;27511;52.042;5.178;2022-10-23T06:04:26;9.48;;;6.15;;
41837;SDS011;27511;52.042;5.178;2022-10-23T06:06:51;8.52;;;6.03;;
41837;SDS011;27511;52.042;5.178;2022-10-23T06:09:17;10.38;;;6.45;;
41837;SDS011;27511;52.042;5.178;2022-10-23T06:11:42;10.88;;;6.32;;
41837;SDS011;27511;52.042;5.178;2022-10-23T06:14:08;11.10;;;5.45;;
41837;SDS011;27511;52.042;5.178;2022-10-23T06:16:33;12.80;;;6.65;;
41837;SDS011;27511;52.042;5.178;2022-10-23T06:18:59;10.50;;;6.95;;
41837;SDS011;27511;52.042;5.178;2022-10-23T06:21:25;12.30;;;5.82;;
41837;SDS011;27511;52.042;5.178;2022-10-23T06:23:50;12.43;;;6.15;;
41837;SDS011;27511;52.042;5.178;2022-10-23T06:26:17;7.75;;;5.75;;
41837;SDS011;27511;52.042;5.178;2022-10-23T06:28:43;10.15;;;6.20;;
41837;SDS011;27511;52.042;5.178;2022-10-23T06:31:10;9.82;;;5.95;;
41837;SDS011;27511;52.042;5.178;2022-10-23T06:33:38;8.85;;;5.72;;
41837;SDS011;27511;52.042;5.178;2022-10-23T06:36:04;8.75;;;5.25;;
41837;SDS011;27511;52.042;5.178;2022-10-23T06:38:32;9.68;;;5.70;;
41837;SDS011;27511;52.042;5.178;2022-10-23T06:41:00;10.70;;;6.38;;
41837;SDS011;27511;52.042;5.178;2022-10-23T06:43:27;9.23;;;6.47;;
41837;SDS011;27511;52.042;5.178;2022-10-23T06:45:52;11.88;;;5.93;;
41837;SDS011;27511;52.042;5.178;2022-10-23T06:48:18;11.48;;;6.13;;
41837;SDS011;27511;52.042;5.178;2022-10-23T06:50:43;11.88;;;6.00;;
41837;SDS011;27511;52.042;5.178;2022-10-23T06:53:09;10.40;;;7.10;;
41837;SDS011;27511;52.042;5.178;2022-10-23T06:55:36;10.82;;;6.03;;
41837;SDS011;27511;52.042;5.178;2022-10-23T06:58:03;9.38;;;5.72;;
41837;SDS011;27511;52.042;5.178;2022-10-23T07:00:34;11.02;;;5.90;;
41837;SDS011;27511;52.042;5.178;2022-10-23T07:03:03;12.10;;;6.53;;
41837;SDS011;27511;52.042;5.178;2022-10-23T07:05:29;10.07;;;5.93;;
41837;SDS011;27511;52.042;5.178;2022-10-23T07:07:56;9.45;;;6.15;;
41837;SDS011;27511;52.042;5.178;2022-10-23T07:10:21;10.63;;;6.35;;
41837;SDS011;27511;52.042;5.178;2022-10-23T07:12:47;12.32;;;6.43;;
41837;SDS011;27511;52.042;5.178;2022-10-23T07:15:13;10.93;;;6.43;;
41837;SDS011;27511;52.042;5.178;2022-10-23T07:17:39;8.85;;;5.90;;
41837;SDS011;27511;52.042;5.178;2022-10-23T07:20:05;9.80;;;6.55;;
41837;SDS011;27511;52.042;5.178;2022-10-23T07:22:31;8.43;;;5.93;;
41837;SDS011;27511;52.042;5.178;2022-10-23T07:24:56;12.48;;;6.60;;
41837;SDS011;27511;52.042;5.178;2022-10-23T07:27:22;11.35;;;5.90;;
41837;SDS011;27511;52.042;5.178;2022-10-23T07:29:49;7.20;;;5.70;;
41837;SDS011;27511;52.042;5.178;2022-10-23T07:32:15;9.27;;;5.88;;
41837;SDS011;27511;52.042;5.178;2022-10-23T07:34:40;10.10;;;5.40;;
41837;SDS011;27511;52.042;5.178;2022-10-23T07:37:06;11.80;;;6.38;;
41837;SDS011;27511;52.042;5.178;2022-10-23T07:39:32;12.57;;;6.63;;
41837;SDS011;27511;52.042;5.178;2022-10-23T07:41:57;9.77;;;6.38;;
41837;SDS011;27511;52.042;5.178;2022-10-23T07:44:23;12.50;;;6.40;;
41837;SDS011;27511;52.042;5.178;2022-10-23T07:46:49;11.57;;;6.47;;
41837;SDS011;27511;52.042;5.178;2022-10-23T07:49:14;12.55;;;6.68;;
41837;SDS011;27511;52.042;5.178;2022-10-23T07:51:40;11.60;;;6.00;;
41837;SDS011;27511;52.042;5.178;2022-10-23T07:54:06;10.40;;;6.53;;
41837;SDS011;27511;52.042;5.178;2022-10-23T07:56:32;10.43;;;7.22;;
41837;SDS011;27511;52.042;5.178;2022-10-23T07:58:57;9.30;;;6.03;;
41837;SDS011;27511;52.042;5.178;2022-10-23T08:01:33;11.27;;;6.00;;
41837;SDS011;27511;52.042;5.178;2022-10-23T08:04:01;11.77;;;5.93;;
41837;SDS011;27511;52.042;5.178;2022-10-23T08:06:27;9.13;;;6.00;;
41837;SDS011;27511;52.042;5.178;2022-10-23T08:08:53;9.30;;;5.80;;
41837;SDS011;27511;52.042;5.178;2022-10-23T08:11:20;11.45;;;6.15;;
41837;SDS011;27511;52.042;5.178;2022-10-23T08:13:51;9.77;;;5.53;;
41837;SDS011;27511;52.042;5.178;2022-10-23T08:16:17;10.00;;;6.55;;
41837;SDS011;27511;52.042;5.178;2022-10-23T08:18:43;8.75;;;5.65;;
41837;SDS011;27511;52.042;5.178;2022-10-23T08:21:09;14.00;;;5.95;;
41837;SDS011;27511;52.042;5.178;2022-10-23T08:23:36;10.00;;;6.43;;
41837;SDS011;27511;52.042;5.178;2022-10-23T08:26:02;10.77;;;6.68;;
41837;SDS011;27511;52.042;5.178;2022-10-23T08:28:30;10.10;;;6.00;;
41837;SDS011;27511;52.042;5.178;2022-10-23T08:30:56;13.85;;;6.00;;
41837;SDS011;27511;52.042;5.178;2022-10-23T08:33:22;8.95;;;5.85;;
41837;SDS011;27511;52.042;5.178;2022-10-23T08:35:48;11.63;;;6.25;;
41837;SDS011;27511;52.042;5.178;2022-10-23T08:38:13;10.73;;;5.63;;
41837;SDS011;27511;52.042;5.178;2022-10-23T08:40:42;9.07;;;6.20;;
41837;SDS011;27511;52.042;5.178;2022-10-23T08:45:37;8.88;;;6.95;;
41837;SDS011;27511;52.042;5.178;2022-10-23T08:48:15;10.65;;;5.75;;
41837;SDS011;27511;52.042;5.178;2022-10-23T08:50:50;8.38;;;6.05;;
41837;SDS011;27511;52.042;5.178;2022-10-23T08:53:26;10.75;;;5.70;;
41837;SDS011;27511;52.042;5.178;2022-10-23T08:56:11;8.82;;;5.78;;
41837;SDS011;27511;52.042;5.178;2022-10-23T08:58:46;8.10;;;5.50;;
41837;SDS011;27511;52.042;5.178;2022-10-23T09:03:58;8.75;;;5.85;;
41837;SDS011;27511;52.042;5.178;2022-10-23T09:06:29;12.63;;;6.50;;
41837;SDS011;27511;52.042;5.178;2022-10-23T09:09:17;9.50;;;5.70;;
41837;SDS011;27511;52.042;5.178;2022-10-23T09:11:56;9.18;;;5.95;;
41837;SDS011;27511;52.042;5.178;2022-10-23T09:14:43;7.43;;;5.20;;
41837;SDS011;27511;52.042;5.178;2022-10-23T09:17:32;8.07;;;5.70;;
41837;SDS011;27511;52.042;5.178;2022-10-23T09:20:09;7.57;;;5.60;;
41837;SDS011;27511;52.042;5.178;2022-10-23T09:22:40;9.77;;;5.50;;
41837;SDS011;27511;52.042;5.178;2022-10-23T09:25:07;7.05;;;4.88;;
41837;SDS011;27511;52.042;5.178;2022-10-23T09:27:54;8.57;;;5.55;;
41837;SDS011;27511;52.042;5.178;2022-10-23T09:30:29;13.13;;;6.15;;
41837;SDS011;27511;52.042;5.178;2022-10-23T09:32:55;7.88;;;5.53;;
41837;SDS011;27511;52.042;5.178;2022-10-23T09:35:23;11.57;;;5.55;;
41837;SDS011;27511;52.042;5.178;2022-10-23T09:37:50;6.20;;;4.57;;
41837;SDS011;27511;52.042;5.178;2022-10-23T09:40:38;7.57;;;4.72;;
41837;SDS011;27511;52.042;5.178;2022-10-23T09:43:13;7.85;;;5.03;;
41837;SDS011;27511;52.042;5.178;2022-10-23T09:45:40;8.48;;;5.03;;
41837;SDS011;27511;52.042;5.178;2022-10-23T09:48:10;8.50;;;5.57;;
41837;SDS011;27511;52.042;5.178;2022-10-23T09:50:46;9.77;;;5.32;;
41837;SDS011;27511;52.042;5.178;2022-10-23T09:53:14;9.93;;;5.03;;
41837;SDS011;27511;52.042;5.178;2022-10-23T09:55:52;6.93;;;4.38;;
41837;SDS011;27511;52.042;5.178;2022-10-23T09:58:20;7.00;;;4.13;;
41837;SDS011;27511;52.042;5.178;2022-10-23T10:01:21;9.00;;;4.78;;
41837;SDS011;27511;52.042;5.178;2022-10-23T10:03:51;7.30;;;3.90;;
41837;SDS011;27511;52.042;5.178;2022-10-23T10:06:20;7.35;;;3.92;;
41837;SDS011;27511;52.042;5.178;2022-10-23T10:08:49;7.13;;;4.15;;
41837;SDS011;27511;52.042;5.178;2022-10-23T10:11:24;7.20;;;4.45;;
41837;SDS011;27511;52.042;5.178;2022-10-23T10:16:43;6.20;;;4.25;;
41837;SDS011;27511;52.042;5.178;2022-10-23T10:22:25;6.47;;;3.50;;
41837;SDS011;27511;52.042;5.178;2022-10-23T10:25:06;7.10;;;4.25;;
41837;SDS011;27511;52.042;5.178;2022-10-23T10:27:58;7.75;;;3.95;;
41837;SDS011;27511;52.042;5.178;2022-10-23T10:30:33;9.32;;;4.13;;
41837;SDS011;27511;52.042;5.178;2022-10-23T10:33:17;7.55;;;4.05;;
41837;SDS011;27511;52.042;5.178;2022-10-23T10:36:12;10.52;;;4.18;;
41837;SDS011;27511;52.042;5.178;2022-10-23T10:39:03;5.63;;;4.10;;
41837;SDS011;27511;52.042;5.178;2022-10-23T10:41:36;7.32;;;3.80;;
41837;SDS011;27511;52.042;5.178;2022-10-23T10:47:13;6.65;;;3.75;;
41837;SDS011;27511;52.042;5.178;2022-10-23T10:52:29;4.88;;;3.78;;
41837;SDS011;27511;52.042;5.178;2022-10-23T10:57:51;6.40;;;3.60;;
41837;SDS011;27511;52.042;5.178;2022-10-23T11:00:22;5.45;;;3.55;;
41837;SDS011;27511;52.042;5.178;2022-10-23T11:02:51;6.55;;;4.13;;
41837;SDS011;27511;52.042;5.178;2022-10-23T11:05:37;5.47;;;3.30;;
41837;SDS011;27511;52.042;5.178;2022-10-23T11:08:14;5.22;;;3.60;;
41837;SDS011;27511;52.042;5.178;2022-10-23T11:10:45;5.00;;;3.42;;
41837;SDS011;27511;52.042;5.178;2022-10-23T11:13:34;5.45;;;3.40;;
41837;SDS011;27511;52.042;5.178;2022-10-23T11:16:12;5.07;;;3.92;;
41837;SDS011;27511;52.042;5.178;2022-10-23T11:18:55;8.82;;;3.67;;
41837;SDS011;27511;52.042;5.178;2022-10-23T11:21:34;5.50;;;3.40;;
41837;SDS011;27511;52.042;5.178;2022-10-23T11:32:28;4.25;;;3.17;;
41837;SDS011;27511;52.042;5.178;2022-10-23T11:38:08;5.85;;;3.72;;
41837;SDS011;27511;52.042;5.178;2022-10-23T11:40:48;7.28;;;4.10;;
41837;SDS011;27511;52.042;5.178;2022-10-23T11:43:29;5.65;;;3.85;;
41837;SDS011;27511;52.042;5.178;2022-10-23T11:45:54;4.10;;;3.03;;
41837;SDS011;27511;52.042;5.178;2022-10-23T11:48:37;7.43;;;3.28;;
41837;SDS011;27511;52.042;5.178;2022-10-23T11:53:49;4.88;;;3.13;;
41837;SDS011;27511;52.042;5.178;2022-10-23T12:06:23;4.38;;;3.08;;
41837;SDS011;27511;52.042;5.178;2022-10-23T12:09:00;4.60;;;2.90;;
41837;SDS011;27511;52.042;5.178;2022-10-23T12:11:39;6.32;;;2.95;;
41837;SDS011;27511;52.042;5.178;2022-10-23T12:14:30;4.25;;;3.13;;
41837;SDS011;27511;52.042;5.178;2022-10-23T12:20:00;5.28;;;3.10;;
41837;SDS011;27511;52.042;5.178;2022-10-23T12:22:36;5.40;;;3.60;;
41837;SDS011;27511;52.042;5.178;2022-10-23T12:25:13;6.72;;;3.58;;
41837;SDS011;27511;52.042;5.178;2022-10-23T12:27:58;7.35;;;3.67;;
41837;SDS011;27511;52.042;5.178;2022-10-23T12:33:09;6.95;;;2.97;;
41837;SDS011;27511;52.042;5.178;2022-10-23T12:35:51;5.75;;;3.38;;
41837;SDS011;27511;52.042;5.178;2022-10-23T12:38:45;5.93;;;3.45;;
41837;SDS011;27511;52.042;5.178;2022-10-23T12:41:12;6.53;;;3.95;;
41837;SDS011;27511;52.042;5.178;2022-10-23T12:43:41;5.85;;;3.22;;
41837;SDS011;27511;52.042;5.178;2022-10-23T12:48:46;6.55;;;3.45;;
41837;SDS011;27511;52.042;5.178;2022-10-23T12:51:21;6.97;;;3.78;;
41837;SDS011;27511;52.042;5.178;2022-10-23T12:53:49;5.53;;;3.67;;
41837;SDS011;27511;52.042;5.178;2022-10-23T12:56:15;7.72;;;3.30;;
41837;SDS011;27511;52.042;5.178;2022-10-23T12:58:48;5.75;;;3.40;;
41837;SDS011;27511;52.042;5.178;2022-10-23T13:01:29;5.88;;;3.33;;
41837;SDS011;27511;52.042;5.178;2022-10-23T13:06:34;7.10;;;3.42;;
41837;SDS011;27511;52.042;5.178;2022-10-23T13:09:02;6.70;;;3.03;;
41837;SDS011;27511;52.042;5.178;2022-10-23T13:11:28;6.05;;;3.38;;
41837;SDS011;27511;52.042;5.178;2022-10-23T13:13:56;8.02;;;3.65;;
41837;SDS011;27511;52.042;5.178;2022-10-23T13:16:23;5.82;;;3.33;;
41837;SDS011;27511;52.042;5.178;2022-10-23T13:18:49;6.72;;;3.38;;
41837;SDS011;27511;52.042;5.178;2022-10-23T13:21:22;9.73;;;3.55;;
41837;SDS011;27511;52.042;5.178;2022-10-23T13:23:50;7.70;;;3.50;;
41837;SDS011;27511;52.042;5.178;2022-10-23T13:26:58;5.60;;;3.38;;
41837;SDS011;27511;52.042;5.178;2022-10-23T13:32:04;6.00;;;3.83;;
41837;SDS011;27511;52.042;5.178;2022-10-23T13:34:49;5.95;;;3.70;;
41837;SDS011;27511;52.042;5.178;2022-10-23T13:37:21;6.68;;;3.47;;
41837;SDS011;27511;52.042;5.178;2022-10-23T13:39:59;4.78;;;3.60;;
41837;SDS011;27511;52.042;5.178;2022-10-23T13:42:26;14.00;;;3.97;;
41837;SDS011;27511;52.042;5.178;2022-10-23T13:44:52;4.00;;;3.00;;
41837;SDS011;27511;52.042;5.178;2022-10-23T13:47:17;8.75;;;3.45;;
41837;SDS011;27511;52.042;5.178;2022-10-23T13:49:43;7.63;;;4.35;;
41837;SDS011;27511;52.042;5.178;2022-10-23T13:52:10;4.07;;;3.33;;
41837;SDS011;27511;52.042;5.178;2022-10-23T13:54:38;5.07;;;3.00;;
41837;SDS011;27511;52.042;5.178;2022-10-23T13:57:04;6.25;;;3.63;;
41837;SDS011;27511;52.042;5.178;2022-10-23T13:59:34;4.38;;;3.22;;
41837;SDS011;27511;52.042;5.178;2022-10-23T14:02:00;6.20;;;3.47;;
41837;SDS011;27511;52.042;5.178;2022-10-23T14:04:25;5.75;;;3.35;;
41837;SDS011;27511;52.042;5.178;2022-10-23T14:06:51;6.03;;;3.70;;
41837;SDS011;27511;52.042;5.178;2022-10-23T14:09:22;4.93;;;3.40;;
41837;SDS011;27511;52.042;5.178;2022-10-23T14:11:47;6.45;;;3.13;;
41837;SDS011;27511;52.042;5.178;2022-10-23T14:14:13;5.65;;;3.10;;
41837;SDS011;27511;52.042;5.178;2022-10-23T14:16:39;5.78;;;3.30;;
41837;SDS011;27511;52.042;5.178;2022-10-23T14:19:04;4.78;;;3.08;;
41837;SDS011;27511;52.042;5.178;2022-10-23T14:21:30;4.00;;;2.92;;
41837;SDS011;27511;52.042;5.178;2022-10-23T14:23:55;5.90;;;3.83;;
41837;SDS011;27511;52.042;5.178;2022-10-23T14:26:22;6.97;;;3.60;;
41837;SDS011;27511;52.042;5.178;2022-10-23T14:28:53;5.30;;;2.90;;
41837;SDS011;27511;52.042;5.178;2022-10-23T14:31:19;7.00;;;3.17;;
41837;SDS011;27511;52.042;5.178;2022-10-23T14:33:49;4.88;;;3.03;;
41837;SDS011;27511;52.042;5.178;2022-10-23T14:38:45;4.60;;;2.97;;
41837;SDS011;27511;52.042;5.178;2022-10-23T14:41:14;4.90;;;2.78;;
41837;SDS011;27511;52.042;5.178;2022-10-23T14:43:41;7.55;;;3.15;;
41837;SDS011;27511;52.042;5.178;2022-10-23T14:46:10;4.38;;;3.03;;
41837;SDS011;27511;52.042;5.178;2022-10-23T14:48:37;6.55;;;3.13;;
41837;SDS011;27511;52.042;5.178;2022-10-23T14:51:04;3.17;;;2.45;;
41837;SDS011;27511;52.042;5.178;2022-10-23T14:53:31;4.15;;;3.08;;
41837;SDS011;27511;52.042;5.178;2022-10-23T14:56:01;5.63;;;3.00;;
41837;SDS011;27511;52.042;5.178;2022-10-23T14:58:28;2.90;;;2.60;;
41837;SDS011;27511;52.042;5.178;2022-10-23T15:00:57;5.32;;;2.72;;
41837;SDS011;27511;52.042;5.178;2022-10-23T15:03:23;5.13;;;2.72;;
41837;SDS011;27511;52.042;5.178;2022-10-23T15:05:49;8.23;;;3.17;;
41837;SDS011;27511;52.042;5.178;2022-10-23T15:08:15;5.70;;;2.92;;
41837;SDS011;27511;52.042;5.178;2022-10-23T15:10:40;6.38;;;3.03;;
41837;SDS011;27511;52.042;5.178;2022-10-23T15:13:06;5.22;;;2.80;;
41837;SDS011;27511;52.042;5.178;2022-10-23T15:15:31;3.42;;;2.67;;
41837;SDS011;27511;52.042;5.178;2022-10-23T15:17:57;3.35;;;2.58;;
41837;SDS011;27511;52.042;5.178;2022-10-23T15:20:22;4.70;;;3.13;;
41837;SDS011;27511;52.042;5.178;2022-10-23T15:22:48;6.15;;;3.90;;
41837;SDS011;27511;52.042;5.178;2022-10-23T15:25:13;5.70;;;2.65;;
41837;SDS011;27511;52.042;5.178;2022-10-23T15:27:39;3.10;;;2.60;;
41837;SDS011;27511;52.042;5.178;2022-10-23T15:30:04;3.97;;;2.90;;
41837;SDS011;27511;52.042;5.178;2022-10-23T15:32:30;4.32;;;2.97;;
41837;SDS011;27511;52.042;5.178;2022-10-23T15:34:55;7.72;;;2.88;;
41837;SDS011;27511;52.042;5.178;2022-10-23T15:37:22;5.70;;;3.17;;
41837;SDS011;27511;52.042;5.178;2022-10-23T15:39:48;4.90;;;2.83;;
41837;SDS011;27511;52.042;5.178;2022-10-23T15:42:13;6.80;;;3.10;;
41837;SDS011;27511;52.042;5.178;2022-10-23T15:44:39;4.03;;;2.75;;
41837;SDS011;27511;52.042;5.178;2022-10-23T15:47:05;5.75;;;3.30;;
41837;SDS011;27511;52.042;5.178;2022-10-23T15:49:31;6.50;;;3.13;;
41837;SDS011;27511;52.042;5.178;2022-10-23T15:51:57;5.80;;;3.50;;
41837;SDS011;27511;52.042;5.178;2022-10-23T15:54:22;5.47;;;3.15;;
41837;SDS011;27511;52.042;5.178;2022-10-23T15:56:49;4.78;;;2.85;;
41837;SDS011;27511;52.042;5.178;2022-10-23T15:59:17;3.90;;;2.83;;
41837;SDS011;27511;52.042;5.178;2022-10-23T16:01:44;4.35;;;3.10;;
41837;SDS011;27511;52.042;5.178;2022-10-23T16:04:10;6.40;;;3.25;;
41837;SDS011;27511;52.042;5.178;2022-10-23T16:06:35;5.85;;;3.05;;
41837;SDS011;27511;52.042;5.178;2022-10-23T16:09:01;5.75;;;3.30;;
41837;SDS011;27511;52.042;5.178;2022-10-23T16:11:27;4.32;;;2.97;;
41837;SDS011;27511;52.042;5.178;2022-10-23T16:13:56;6.07;;;3.42;;
41837;SDS011;27511;52.042;5.178;2022-10-23T16:16:23;4.50;;;3.00;;
41837;SDS011;27511;52.042;5.178;2022-10-23T16:18:48;7.40;;;3.42;;
41837;SDS011;27511;52.042;5.178;2022-10-23T16:21:21;7.63;;;3.15;;